Time;durP1;ratioP1;P1;durP2;ratioP2;P2;SDS_P1;SDS_P2;PMS_P1;PMS_P2;Temp;Humidity;BMP_temperature;BMP_pressure;BME280_temperature;BME280_humidity;BME280_pressure;Samples;Min_cycle;Max_cycle;Signal;HPM_P1;HPM_P2
2021/09/08 00:01:49;;;;;;;28.38;20.25;;;;;;;16.60;100.00;96731.66;5107322;27;20089;-55
2021/09/08 00:04:18;;;;;;;29.88;22.13;;;;;;;16.49;100.00;96720.56;5104075;27;20063;-52
2021/09/08 00:06:47;;;;;;;29.23;21.52;;;;;;;17.13;100.00;96718.47;5093850;27;20091;-54
2021/09/08 00:09:17;;;;;;;27.50;20.58;;;;;;;17.34;100.00;96717.78;5099066;28;20070;-51
2021/09/08 00:11:46;;;;;;;21.95;17.40;;;;;;;17.26;100.00;96715.22;5116102;27;20063;-55
2021/09/08 00:14:16;;;;;;;19.10;14.93;;;;;;;17.30;100.00;96716.50;5102693;27;20066;-54
2021/09/08 00:16:45;;;;;;;19.27;15.18;;;;;;;17.22;100.00;96712.06;5102250;27;20054;-55
2021/09/08 00:19:13;;;;;;;20.50;14.95;;;;;;;17.28;100.00;96711.38;5111049;27;20079;-52
2021/09/08 00:21:42;;;;;;;19.73;15.07;;;;;;;17.29;100.00;96709.53;5098027;27;20070;-55
2021/09/08 00:24:10;;;;;;;20.38;15.60;;;;;;;17.17;100.00;96703.81;5101210;27;20063;-55
2021/09/08 00:26:38;;;;;;;20.20;15.05;;;;;;;17.04;100.00;96698.25;5099440;27;20514;-56
2021/09/08 00:29:07;;;;;;;13.95;11.68;;;;;;;17.11;100.00;96698.38;5112517;27;20354;-51
2021/09/08 00:31:37;;;;;;;14.45;11.57;;;;;;;16.97;100.00;96695.47;5098319;27;20093;-51
2021/09/08 00:34:05;;;;;;;12.57;10.32;;;;;;;17.07;100.00;96692.56;5104065;27;20606;-53
2021/09/08 00:36:34;;;;;;;37.40;10.70;;;;;;;16.74;100.00;96697.28;5095135;28;20446;-50
2021/09/08 00:39:02;;;;;;;30.88;16.60;;;;;;;16.51;100.00;96699.91;5100310;28;20071;-50
2021/09/08 00:41:31;;;;;;;17.42;14.80;;;;;;;16.76;100.00;96697.97;5097793;28;20066;-52
2021/09/08 00:44:09;;;;;;;15.70;13.13;;;;;;;16.88;100.00;96698.38;5103546;28;20055;-50
2021/09/08 00:46:40;;;;;;;34.97;21.98;;;;;;;16.92;100.00;96691.69;5083656;28;20102;-56
2021/09/08 00:49:09;;;;;;;27.88;20.23;;;;;;;16.81;100.00;96691.09;5094623;28;20064;-56
2021/09/08 00:51:38;;;;;;;34.47;24.15;;;;;;;16.94;100.00;96685.16;5103120;28;20070;-51
2021/09/08 00:54:11;;;;;;;25.40;19.33;;;;;;;16.93;100.00;96677.34;5096647;28;20056;-52
2021/09/08 00:56:41;;;;;;;36.33;26.23;;;;;;;16.95;100.00;96681.50;5102388;28;20067;-54
2021/09/08 00:59:10;;;;;;;32.33;23.77;;;;;;;17.02;100.00;96674.44;5095682;28;20063;-55
2021/09/08 01:01:40;;;;;;;24.27;17.85;;;;;;;16.61;100.00;96679.22;5101001;28;20094;-56
2021/09/08 01:04:09;;;;;;;25.83;19.30;;;;;;;16.71;100.00;96677.16;5104938;28;20462;-55
2021/09/08 01:06:37;;;;;;;32.53;21.40;;;;;;;16.83;100.00;96673.09;5092904;28;20075;-49
2021/09/08 01:09:06;;;;;;;20.70;15.98;;;;;;;16.84;100.00;96674.75;5101381;28;20083;-52
2021/09/08 01:11:34;;;;;;;21.33;14.82;;;;;;;16.70;100.00;96672.84;5102195;28;20087;-51
2021/09/08 01:14:03;;;;;;;33.88;12.10;;;;;;;16.49;100.00;96675.31;5108466;28;20477;-50
2021/09/08 01:16:31;;;;;;;17.83;14.63;;;;;;;16.64;100.00;96662.88;5095459;28;20533;-57
2021/09/08 01:19:01;;;;;;;28.02;19.52;;;;;;;16.68;100.00;96671.34;5101587;28;20070;-50
2021/09/08 01:21:30;;;;;;;29.23;21.58;;;;;;;16.69;100.00;96665.88;5096793;28;20071;-54
2021/09/08 01:24:05;;;;;;;33.13;22.20;;;;;;;16.78;100.00;96669.31;5093097;28;20070;-55
2021/09/08 01:26:35;;;;;;;39.25;21.02;;;;;;;16.77;100.00;96670.31;5097413;28;20074;-49
2021/09/08 01:29:04;;;;;;;30.65;21.02;;;;;;;16.71;100.00;96676.31;5091522;28;20055;-48
2021/09/08 01:31:32;;;;;;;30.23;19.40;;;;;;;16.69;100.00;96668.53;5103440;28;20568;-53
2021/09/08 01:34:00;;;;;;;23.63;17.65;;;;;;;16.59;100.00;96663.44;5097976;28;20079;-50
2021/09/08 01:36:29;;;;;;;21.77;16.15;;;;;;;16.54;100.00;96659.63;5100343;28;20548;-55
2021/09/08 01:38:57;;;;;;;20.85;15.10;;;;;;;16.34;100.00;96665.44;5094901;28;20067;-52
2021/09/08 01:41:27;;;;;;;18.30;15.15;;;;;;;16.68;100.00;96661.53;5094991;28;20548;-52
2021/09/08 01:43:55;;;;;;;21.60;16.30;;;;;;;16.72;100.00;96659.34;5101579;28;20066;-53
2021/09/08 01:46:24;;;;;;;19.77;15.82;;;;;;;16.68;100.00;96660.69;5094474;28;20071;-54
2021/09/08 01:48:52;;;;;;;19.85;14.65;;;;;;;16.67;100.00;96657.22;5107321;28;20085;-54
2021/09/08 01:51:21;;;;;;;16.20;13.13;;;;;;;16.63;100.00;96647.94;5095121;28;20075;-55
2021/09/08 01:53:49;;;;;;;21.38;14.88;;;;;;;16.68;100.00;96650.03;5095505;28;20068;-53
2021/09/08 01:56:17;;;;;;;14.32;12.25;;;;;;;16.58;100.00;96652.94;5097946;27;20075;-49
2021/09/08 01:58:47;;;;;;;16.45;13.02;;;;;;;16.49;100.00;96641.53;5100763;27;20533;-54
2021/09/08 02:01:34;;;;;;;15.23;12.02;;;;;;;16.50;100.00;96650.34;5103206;27;20108;-51
2021/09/08 02:04:03;;;;;;;25.27;17.33;;;;;;;16.50;100.00;96643.19;5101550;27;20161;-52
2021/09/08 02:06:31;;;;;;;12.05;10.75;;;;;;;16.35;100.00;96647.63;5101309;27;20552;-52
2021/09/08 02:09:01;;;;;;;10.75;8.98;;;;;;;16.27;100.00;96640.50;5097298;27;20063;-51
2021/09/08 02:11:48;;;;;;;10.23;9.15;;;;;;;16.24;100.00;96638.22;5114001;27;20101;-48
2021/09/08 02:14:18;;;;;;;13.93;9.75;;;;;;;16.23;100.00;96638.38;5103219;27;20104;-55
2021/09/08 02:16:46;;;;;;;16.00;10.90;;;;;;;16.06;100.00;96640.28;5103686;27;20071;-48
2021/09/08 02:19:14;;;;;;;14.23;11.95;;;;;;;16.22;100.00;96634.88;5115058;27;20488;-55
2021/09/08 02:21:43;;;;;;;24.00;16.70;;;;;;;16.08;100.00;96631.16;5101186;27;20245;-55
2021/09/08 02:24:12;;;;;;;23.23;16.67;;;;;;;16.11;100.00;96628.13;5097613;28;20075;-52
2021/09/08 02:26:40;;;;;;;25.92;18.95;;;;;;;16.20;100.00;96623.56;5107537;27;20082;-52
2021/09/08 02:29:10;;;;;;;26.27;19.45;;;;;;;16.04;100.00;96621.03;5111607;27;20051;-55
2021/09/08 02:31:40;;;;;;;23.75;17.90;;;;;;;15.86;100.00;96621.28;5096125;27;20076;-53
2021/09/08 02:34:09;;;;;;;23.85;16.85;;;;;;;16.19;100.00;96624.59;5096142;27;20083;-53
2021/09/08 02:36:37;;;;;;;22.17;16.50;;;;;;;16.22;100.00;96626.91;5096361;27;20512;-54
2021/09/08 02:39:06;;;;;;;19.60;14.20;;;;;;;16.09;100.00;96624.81;5098821;28;20874;-53
2021/09/08 02:41:35;;;;;;;23.02;16.15;;;;;;;16.06;100.00;96624.31;5098386;27;20067;-54
2021/09/08 02:44:04;;;;;;;28.00;18.67;;;;;;;16.19;100.00;96623.78;5100094;27;20059;-54
2021/09/08 02:46:32;;;;;;;21.25;15.18;;;;;;;16.08;100.00;96627.66;5096370;28;20084;-52
2021/09/08 02:49:02;;;;;;;20.83;15.45;;;;;;;15.99;100.00;96624.19;5097253;27;20090;-55
2021/09/08 02:51:31;;;;;;;19.37;14.27;;;;;;;16.06;100.00;96624.31;5095342;27;20174;-56
2021/09/08 02:53:59;;;;;;;21.20;14.40;;;;;;;16.07;100.00;96621.50;5098920;27;20501;-48
2021/09/08 02:56:27;;;;;;;19.75;13.88;;;;;;;15.85;100.00;96619.63;5093451;28;20068;-51
2021/09/08 02:58:56;;;;;;;21.05;15.05;;;;;;;15.68;100.00;96621.53;5085321;27;20082;-54
2021/09/08 03:01:24;;;;;;;18.55;14.35;;;;;;;15.59;100.00;96617.22;5081195;28;20450;-48
2021/09/08 03:03:53;;;;;;;20.15;14.45;;;;;;;15.46;100.00;96619.59;5106216;27;20517;-52
2021/09/08 03:06:23;;;;;;;24.40;16.63;;;;;;;15.57;100.00;96617.38;5094933;27;20556;-55
2021/09/08 03:08:51;;;;;;;23.10;15.63;;;;;;;15.50;100.00;96615.59;5101313;27;20068;-53
2021/09/08 03:11:20;;;;;;;22.77;16.52;;;;;;;15.53;100.00;96612.59;5102728;27;20489;-56
2021/09/08 03:13:48;;;;;;;24.55;16.80;;;;;;;15.40;100.00;96605.16;5095697;28;20075;-51
2021/09/08 03:16:17;;;;;;;23.42;16.63;;;;;;;15.43;100.00;96602.16;5086510;28;20067;-56
2021/09/08 03:18:45;;;;;;;26.42;18.20;;;;;;;15.40;100.00;96600.66;5106374;27;20066;-54
2021/09/08 03:21:14;;;;;;;26.83;17.90;;;;;;;15.37;100.00;96606.31;5106215;27;20051;-56
2021/09/08 03:23:44;;;;;;;26.42;18.38;;;;;;;15.49;100.00;96608.63;5092201;28;20608;-56
2021/09/08 03:26:12;;;;;;;26.75;19.52;;;;;;;15.56;100.00;96605.09;5102518;27;20531;-56
2021/09/08 03:28:40;;;;;;;31.23;19.70;;;;;;;15.58;100.00;96600.41;5103883;27;20117;-57
2021/09/08 03:31:09;;;;;;;26.75;18.98;;;;;;;15.52;100.00;96602.94;5106407;27;20075;-55
2021/09/08 03:33:37;;;;;;;21.23;15.88;;;;;;;15.31;100.00;96608.81;5095054;28;20141;-56
2021/09/08 03:36:06;;;;;;;24.10;16.60;;;;;;;15.28;100.00;96604.69;5098448;27;20066;-56
2021/09/08 03:38:34;;;;;;;20.80;15.55;;;;;;;15.25;100.00;96605.03;5081996;27;20059;-56
2021/09/08 03:41:04;;;;;;;21.25;15.35;;;;;;;15.44;100.00;96604.63;5096656;27;20077;-55
2021/09/08 03:43:32;;;;;;;20.48;15.68;;;;;;;15.45;100.00;96597.50;5095550;27;20451;-53
2021/09/08 03:46:04;;;;;;;24.13;18.25;;;;;;;15.56;100.00;96607.75;5095976;27;20106;-56
2021/09/08 03:48:33;;;;;;;23.77;17.55;;;;;;;15.59;100.00;96607.41;5081734;28;20067;-55
2021/09/08 03:51:02;;;;;;;24.77;18.15;;;;;;;15.62;100.00;96604.41;5076307;28;20070;-56
2021/09/08 03:53:30;;;;;;;30.90;21.00;;;;;;;15.61;100.00;96599.25;5093505;27;20094;-58
2021/09/08 03:55:59;;;;;;;27.48;19.40;;;;;;;15.56;100.00;96610.41;5092232;27;20063;-56
2021/09/08 03:58:28;;;;;;;25.77;17.42;;;;;;;15.53;100.00;96599.28;5099054;27;20071;-56
2021/09/08 04:00:57;;;;;;;29.00;19.83;;;;;;;15.52;100.00;96597.63;5105946;27;20078;-56
2021/09/08 04:03:26;;;;;;;30.08;20.45;;;;;;;15.10;100.00;96594.25;5093509;27;20484;-57
2021/09/08 04:05:54;;;;;;;30.00;21.52;;;;;;;15.51;100.00;96601.28;5097082;27;20071;-54
2021/09/08 04:08:23;;;;;;;34.80;23.13;;;;;;;15.18;100.00;96596.91;5098065;27;20071;-52
2021/09/08 04:10:51;;;;;;;34.15;23.15;;;;;;;15.08;100.00;96587.47;5104329;27;20096;-55
2021/09/08 04:13:20;;;;;;;35.35;23.50;;;;;;;15.54;100.00;96585.00;5100180;27;20079;-54
2021/09/08 04:15:50;;;;;;;32.92;23.08;;;;;;;15.60;100.00;96584.31;5102857;27;20076;-53
2021/09/08 04:18:18;;;;;;;27.25;19.58;;;;;;;15.64;100.00;96585.63;5098839;28;20441;-56
2021/09/08 04:20:47;;;;;;;26.20;18.42;;;;;;;15.57;100.00;96590.78;5094372;28;20068;-57
2021/09/08 04:23:15;;;;;;;25.42;16.80;;;;;;;15.59;100.00;96590.63;5097074;28;20067;-54
2021/09/08 04:25:43;;;;;;;23.10;15.80;;;;;;;15.40;100.00;96592.69;5081465;28;20060;-55
2021/09/08 04:28:12;;;;;;;18.70;13.43;;;;;;;15.55;100.00;96584.00;5102544;28;20091;-53
2021/09/08 04:30:41;;;;;;;17.73;12.50;;;;;;;15.33;100.00;96581.09;5094994;27;20034;-58
2021/09/08 04:33:11;;;;;;;28.77;11.82;;;;;;;15.39;100.00;96588.38;5114675;27;20469;-57
2021/09/08 04:35:40;;;;;;;24.67;17.30;;;;;;;15.45;100.00;96584.22;5112055;27;20063;-57
2021/09/08 04:38:08;;;;;;;18.13;12.63;;;;;;;15.39;100.00;96591.03;5096901;28;20590;-55
2021/09/08 04:40:37;;;;;;;18.92;14.40;;;;;;;15.50;100.00;96581.03;5097767;28;20091;-50
2021/09/08 04:43:05;;;;;;;22.13;14.05;;;;;;;15.46;100.00;96590.34;5110870;28;20605;-55
2021/09/08 04:45:34;;;;;;;22.45;15.10;;;;;;;15.54;100.00;96585.00;5096053;28;20059;-55
2021/09/08 04:48:02;;;;;;;27.75;18.42;;;;;;;15.60;100.00;96592.28;5095648;28;20059;-56
2021/09/08 04:50:32;;;;;;;40.65;14.13;;;;;;;15.64;100.00;96582.97;5113902;28;20082;-52
2021/09/08 04:53:00;;;;;;;18.58;14.35;;;;;;;15.56;100.00;96588.31;5109442;28;20532;-57
2021/09/08 04:55:29;;;;;;;24.30;17.63;;;;;;;15.67;100.00;96587.97;5094473;28;20087;-56
2021/09/08 04:57:57;;;;;;;25.55;16.95;;;;;;;15.83;100.00;96595.03;5087637;28;20081;-58
2021/09/08 05:00:26;;;;;;;29.08;18.92;;;;;;;15.94;100.00;96592.00;5109494;28;20128;-53
2021/09/08 05:02:54;;;;;;;35.47;21.92;;;;;;;16.02;100.00;96593.75;5100809;28;20070;-59
2021/09/08 05:05:23;;;;;;;29.48;19.58;;;;;;;16.12;100.00;96595.19;5100842;28;20068;-55
2021/09/08 05:07:52;;;;;;;22.90;16.20;;;;;;;16.12;100.00;96595.19;5088982;28;20067;-55
2021/09/08 05:10:21;;;;;;;24.27;16.83;;;;;;;16.29;100.00;96600.41;5114044;28;20078;-58
2021/09/08 05:12:50;;;;;;;28.65;19.27;;;;;;;16.36;100.00;96593.38;5083545;28;20521;-55
2021/09/08 05:15:18;;;;;;;22.90;16.27;;;;;;;16.42;100.00;96598.00;5102481;28;20075;-54
2021/09/08 05:17:47;;;;;;;23.83;16.75;;;;;;;16.55;100.00;96597.38;5105995;28;20634;-54
2021/09/08 05:20:16;;;;;;;41.22;27.52;;;;;;;16.51;100.00;96598.75;5099510;28;20067;-56
2021/09/08 05:22:44;;;;;;;44.45;28.17;;;;;;;16.60;100.00;96595.84;5101248;28;20063;-56
2021/09/08 05:25:14;;;;;;;39.58;26.30;;;;;;;16.71;100.00;96596.44;5116427;28;20067;-54
2021/09/08 05:27:42;;;;;;;44.75;29.23;;;;;;;17.09;100.00;96592.75;5102639;28;20465;-56
2021/09/08 05:30:11;;;;;;;46.80;27.50;;;;;;;17.27;100.00;96595.09;5088330;27;20071;-53
2021/09/08 05:32:39;;;;;;;47.92;29.55;;;;;;;17.29;100.00;96595.72;5111613;27;20099;-51
2021/09/08 05:35:12;;;;;;;37.15;25.25;;;;;;;17.64;100.00;96597.84;5108954;27;20075;-57
2021/09/08 05:37:41;;;;;;;30.27;21.30;;;;;;;17.80;100.00;96592.34;5107308;27;20632;-56
2021/09/08 05:40:10;;;;;;;25.80;19.40;;;;;;;17.94;100.00;96596.81;5108957;27;20066;-54
2021/09/08 05:43:00;;;;;;;42.95;26.73;;;;;;;17.92;100.00;96590.00;5113884;27;20586;-55
2021/09/08 05:45:28;;;;;;;42.30;27.27;;;;;;;17.39;100.00;96590.13;5116726;27;20086;-57
2021/09/08 05:47:57;;;;;;;41.47;26.10;;;;;;;18.32;100.00;96585.09;5100419;27;20059;-56
2021/09/08 05:50:25;;;;;;;37.00;25.27;;;;;;;18.35;100.00;96590.06;5100955;27;20067;-54
2021/09/08 05:52:53;;;;;;;40.40;27.30;;;;;;;18.68;100.00;96595.72;5107596;27;20086;-56
2021/09/08 05:55:22;;;;;;;29.35;19.92;;;;;;;18.85;100.00;96590.97;5106207;27;20083;-56
2021/09/08 05:57:52;;;;;;;37.22;24.08;;;;;;;18.45;100.00;96590.59;5106758;27;20072;-56
2021/09/08 06:00:22;;;;;;;44.20;26.75;;;;;;;18.33;100.00;96592.91;5107317;27;20060;-56
2021/09/08 06:02:50;;;;;;;40.67;26.83;;;;;;;18.42;100.00;96593.63;5108941;27;20169;-55
2021/09/08 06:05:19;;;;;;;43.05;26.42;;;;;;;18.26;100.00;96589.34;5103500;27;20079;-52
2021/09/08 06:07:47;;;;;;;36.97;25.45;;;;;;;18.50;100.00;96597.00;5105589;27;20067;-56
2021/09/08 06:10:20;;;;;;;38.22;27.35;;;;;;;18.46;100.00;96593.06;5105640;27;20106;-55
2021/09/08 06:12:49;;;;;;;41.88;26.23;;;;;;;17.94;100.00;96601.31;5107059;27;20300;-56
2021/09/08 06:15:20;;;;;;;37.95;27.25;;;;;;;18.37;100.00;96594.19;5100621;27;20074;-57
2021/09/08 06:17:49;;;;;;;;;;;;;;;18.71;100.00;96595.34;5112601;27;20067;-57
2021/09/08 06:20:17;;;;;;;37.78;25.00;;;;;;;18.16;100.00;96592.31;5111324;27;19962;-58
2021/09/08 06:22:46;;;;;;;37.15;26.05;;;;;;;18.02;100.00;96586.00;5103739;27;20062;-57
2021/09/08 06:25:14;;;;;;;37.42;26.17;;;;;;;18.97;100.00;96578.72;5106836;27;20077;-57
2021/09/08 06:27:42;;;;;;;39.90;26.88;;;;;;;18.68;100.00;96574.34;5113316;27;20081;-54
2021/09/08 06:30:12;;;;;;;38.05;26.20;;;;;;;18.16;100.00;96583.50;5103704;27;20070;-55
2021/09/08 06:32:40;;;;;;;37.58;26.52;;;;;;;18.53;100.00;96578.94;5104380;27;20536;-55
2021/09/08 06:35:11;;;;;;;40.67;27.10;;;;;;;18.77;100.00;96586.59;5104572;27;20072;-50
2021/09/08 06:37:39;;;;;;;;;;;;;;;18.41;100.00;96586.63;5111743;27;20105;-58
2021/09/08 06:40:08;;;;;;;43.90;27.73;;;;;;;18.58;100.00;96581.84;5108391;27;20436;-57
2021/09/08 06:42:36;;;;;;;44.40;28.60;;;;;;;18.43;100.00;96580.06;5109996;27;20414;-55
2021/09/08 06:45:18;;;;;;;41.53;27.27;;;;;;;18.57;100.00;96565.00;5103922;27;20078;-55
2021/09/08 06:47:47;;;;;;;40.67;28.67;;;;;;;18.82;100.00;96573.44;5114621;27;20077;-54
2021/09/08 06:50:17;;;;;;;45.72;26.98;;;;;;;18.18;100.00;96568.13;5104383;27;20078;-57
2021/09/08 06:52:45;;;;;;;42.88;27.50;;;;;;;18.45;100.00;96572.72;5107897;27;20067;-56
2021/09/08 06:55:13;;;;;;;42.42;27.38;;;;;;;19.44;100.00;96569.13;5106918;28;20072;-50
2021/09/08 06:57:42;;;;;;;38.17;27.35;;;;;;;19.27;100.00;96563.31;5100463;27;20064;-52
2021/09/08 07:00:11;;;;;;;41.55;28.05;;;;;;;19.20;100.00;96565.94;5105451;27;20126;-57
2021/09/08 07:02:40;;;;;;;40.05;26.30;;;;;;;19.64;100.00;96555.91;5103851;28;20543;-57
2021/09/08 07:05:09;;;;;;;37.60;25.83;;;;;;;20.34;100.00;96553.88;5104314;27;20067;-57
2021/09/08 07:07:40;;;;;;;35.72;26.35;;;;;;;20.80;100.00;96559.28;5098040;27;20111;-57
2021/09/08 07:10:09;;;;;;;40.30;25.30;;;;;;;20.78;100.00;96558.66;5108118;27;20079;-55
2021/09/08 07:12:37;;;;;;;39.47;26.85;;;;;;;19.40;100.00;96563.34;5117196;27;20158;-56
2021/09/08 07:15:07;;;;;;;38.88;25.92;;;;;;;19.59;100.00;96561.00;5098973;27;20070;-55
2021/09/08 07:17:36;;;;;;;37.90;26.23;;;;;;;20.53;100.00;96555.75;5098448;27;20059;-57
2021/09/08 07:20:05;;;;;;;37.80;25.83;;;;;;;20.11;100.00;96555.03;5102877;27;20074;-54
2021/09/08 07:22:34;;;;;;;36.43;26.17;;;;;;;21.10;100.00;96551.63;5104095;27;20086;-57
2021/09/08 07:25:04;;;;;;;35.30;24.95;;;;;;;21.10;100.00;96548.13;5099537;27;20075;-54
2021/09/08 07:27:33;;;;;;;36.53;25.55;;;;;;;;;;5102480;27;20067;-56
2021/09/08 07:30:01;;;;;;;37.35;26.05;;;;;;;20.80;100.00;96550.41;5105782;27;20337;-52
2021/09/08 07:32:29;;;;;;;35.92;25.25;;;;;;;;;;5092610;27;20070;-57
2021/09/08 07:34:59;;;;;;;34.05;24.88;;;;;;;20.97;100.00;96548.97;5098909;27;20067;-54
2021/09/08 07:37:28;;;;;;;39.00;25.98;;;;;;;21.19;100.00;96549.53;5107086;27;20086;-50
2021/09/08 07:39:56;;;;;;;33.80;23.40;;;;;;;20.74;100.00;96551.22;5111029;27;20078;-56
2021/09/08 07:42:26;;;;;;;34.03;24.77;;;;;;;20.92;100.00;96546.09;5100130;27;20058;-58
2021/09/08 07:44:55;;;;;;;33.33;24.30;;;;;;;21.52;100.00;96549.50;5106170;27;20078;-53
2021/09/08 07:47:23;;;;;;;32.95;23.50;;;;;;;22.17;100.00;96545.94;5097317;27;20150;-58
2021/09/08 07:49:51;;;;;;;35.28;24.15;;;;;;;21.97;100.00;96546.84;5083169;28;20093;-57
2021/09/08 07:52:20;;;;;;;32.95;24.05;;;;;;;21.51;100.00;96550.53;5103812;27;20059;-54
2021/09/08 07:54:49;;;;;;;32.85;24.50;;;;;;;21.28;100.00;96550.16;5115327;27;20081;-54
2021/09/08 07:57:17;;;;;;;32.55;22.85;;;;;;;21.67;100.00;96546.53;5097382;28;20071;-55
2021/09/08 07:59:48;;;;;;;32.42;23.58;;;;;;;21.76;100.00;96539.91;5102134;27;20067;-53
2021/09/08 08:02:16;;;;;;;32.08;23.75;;;;;;;21.64;100.00;96549.66;5107330;27;20056;-56
2021/09/08 08:04:45;;;;;;;32.40;21.88;;;;;;;21.84;100.00;96552.25;5100468;28;20074;-57
2021/09/08 08:07:13;;;;;;;31.15;22.00;;;;;;;21.60;100.00;96544.91;5102645;28;20462;-57
2021/09/08 08:09:43;;;;;;;31.77;22.33;;;;;;;22.23;100.00;96539.72;5102973;27;21237;-52
2021/09/08 08:12:11;;;;;;;31.13;22.33;;;;;;;22.60;100.00;96545.22;5109468;27;20634;-57
2021/09/08 08:14:40;;;;;;;28.92;21.10;;;;;;;22.47;100.00;96546.13;5095468;27;20074;-54
2021/09/08 08:17:09;;;;;;;29.98;21.08;;;;;;;22.83;100.00;96537.38;5100987;27;20074;-57
2021/09/08 08:19:38;;;;;;;28.38;21.85;;;;;;;22.88;100.00;96539.41;5105500;27;20087;-56
2021/09/08 08:22:06;;;;;;;32.17;21.83;;;;;;;22.43;100.00;96536.88;5097902;28;20075;-54
2021/09/08 08:24:35;;;;;;;26.77;20.30;;;;;;;22.78;100.00;96531.03;5101226;27;20062;-56
2021/09/08 08:27:04;;;;;;;32.75;21.33;;;;;;;22.17;100.00;96540.56;5115201;27;20063;-56
2021/09/08 08:29:33;;;;;;;28.17;20.30;;;;;;;22.89;100.00;96533.84;5107006;27;20082;-55
2021/09/08 08:32:01;;;;;;;26.17;18.98;;;;;;;23.24;100.00;96533.31;5097148;28;20067;-52
2021/09/08 08:34:31;;;;;;;27.83;18.63;;;;;;;23.45;100.00;96532.88;5103940;27;20083;-57
2021/09/08 08:37:00;;;;;;;25.65;18.23;;;;;;;22.27;100.00;96528.31;5104542;28;20075;-54
2021/09/08 08:39:28;;;;;;;24.95;18.80;;;;;;;23.48;100.00;96522.72;5095497;28;20070;-54
2021/09/08 08:41:56;;;;;;;28.63;20.38;;;;;;;22.84;100.00;96525.59;5101614;27;20071;-55
2021/09/08 08:44:26;;;;;;;22.55;18.20;;;;;;;23.42;100.00;96533.31;5105420;27;20055;-56
2021/09/08 08:46:55;;;;;;;24.10;18.73;;;;;;;23.37;100.00;96524.28;5120834;28;20079;-54
2021/09/08 08:49:24;;;;;;;27.48;17.98;;;;;;;23.48;100.00;96526.22;5106515;28;20079;-54
2021/09/08 08:51:54;;;;;;;23.73;18.50;;;;;;;22.54;100.00;96530.81;5113475;28;20079;-52
2021/09/08 08:54:22;;;;;;;22.55;16.77;;;;;;;23.46;100.00;96528.31;5098305;28;20068;-55
2021/09/08 08:56:52;;;;;;;22.30;17.27;;;;;;;23.91;99.00;96522.63;5105273;28;20067;-58
2021/09/08 08:59:20;;;;;;;24.67;15.80;;;;;;;24.34;93.75;96518.94;5107720;28;20673;-55
2021/09/08 09:01:48;;;;;;;22.50;16.80;;;;;;;23.37;100.00;96518.91;5100149;28;20063;-55
2021/09/08 09:04:17;;;;;;;21.65;16.40;;;;;;;24.37;93.70;96518.47;5100975;27;20087;-54
2021/09/08 09:06:48;;;;;;;22.70;16.90;;;;;;;24.28;92.45;96520.66;5106698;27;20294;-56
2021/09/08 09:09:19;;;;;;;22.67;16.60;;;;;;;24.12;90.82;96514.06;5113846;27;20474;-57
2021/09/08 09:11:49;;;;;;;22.85;16.08;;;;;;;24.58;87.41;96517.97;5102286;27;20067;-55
2021/09/08 09:14:18;;;;;;;19.77;15.00;;;;;;;24.51;86.18;96517.25;5112024;27;20121;-52
2021/09/08 09:16:47;;;;;;;20.33;14.75;;;;;;;24.72;82.93;96504.25;5119575;27;20078;-56
2021/09/08 09:19:15;;;;;;;19.70;15.05;;;;;;;24.95;81.95;96506.97;5110218;27;20094;-56
2021/09/08 09:21:43;;;;;;;19.90;15.15;;;;;;;25.20;77.84;96503.25;5109164;27;20103;-52
2021/09/08 09:24:12;;;;;;;21.45;16.00;;;;;;;25.03;79.18;96503.91;5105753;27;20593;-56
2021/09/08 09:26:42;;;;;;;19.05;14.95;;;;;;;24.16;89.04;96499.06;5105592;27;20486;-56
2021/09/08 09:29:12;;;;;;;21.88;15.00;;;;;;;25.16;77.50;96502.91;5103677;27;20067;-56
2021/09/08 09:31:50;;;;;;;;;;;;;;;24.96;81.16;96497.00;5103735;27;20071;-53
2021/09/08 09:34:18;;;;;;;21.48;14.32;;;;;;;25.25;80.89;96497.94;5122688;27;19958;-53
2021/09/08 09:36:47;;;;;;;18.80;14.02;;;;;;;25.61;69.87;96483.31;5104313;28;20063;-54
2021/09/08 09:39:15;;;;;;;18.25;12.95;;;;;;;25.01;81.15;96491.72;5108997;27;20075;-57
2021/09/08 09:41:45;;;;;;;20.65;15.25;;;;;;;24.72;84.81;96491.59;5110837;27;20079;-53
2021/09/08 09:44:15;;;;;;;18.90;14.38;;;;;;;25.34;74.63;96493.84;5114496;27;20063;-57
2021/09/08 09:46:45;;;;;;;16.33;13.55;;;;;;;25.77;72.66;96487.13;5100618;27;20066;-53
2021/09/08 09:49:14;;;;;;;17.77;15.00;;;;;;;25.10;76.95;96484.91;5101510;27;20080;-53
2021/09/08 09:51:43;;;;;;;19.33;14.57;;;;;;;26.40;71.39;96475.38;5112363;27;20280;-54
2021/09/08 09:54:11;;;;;;;16.80;13.43;;;;;;;25.26;76.31;96478.00;5107499;27;20074;-55
2021/09/08 09:56:44;;;;;;;16.17;13.32;;;;;;;26.07;70.49;96472.59;5111970;27;20063;-56
2021/09/08 09:59:13;;;;;;;21.55;14.23;;;;;;;26.53;67.49;96463.41;5111284;27;20065;-56
2021/09/08 10:01:42;;;;;;;17.33;13.48;;;;;;;26.64;67.72;96459.00;5112568;27;20062;-57
2021/09/08 10:04:11;;;;;;;17.33;13.43;;;;;;;25.34;71.77;96466.84;5105495;27;20078;-57
2021/09/08 10:06:41;;;;;;;16.35;12.63;;;;;;;25.28;76.01;96456.97;5112083;27;20067;-57
2021/09/08 10:09:12;;;;;;;16.58;12.73;;;;;;;25.90;67.22;96454.47;5107448;27;20067;-58
2021/09/08 10:11:44;;;;;;;16.58;12.30;;;;;;;25.61;75.32;96453.63;5103942;27;20078;-57
2021/09/08 10:14:16;;;;;;;16.88;12.45;;;;;;;25.43;69.75;96448.38;5097942;27;20090;-52
2021/09/08 10:16:46;;;;;;;14.80;11.70;;;;;;;26.28;64.26;96448.38;5108955;27;20059;-55
2021/09/08 10:19:17;;;;;;;16.48;11.98;;;;;;;25.69;68.93;96450.53;5114516;27;20083;-56
2021/09/08 10:21:47;;;;;;;15.07;12.43;;;;;;;26.37;66.21;96448.81;5098121;28;21298;-57
2021/09/08 10:24:18;;;;;;;18.38;11.93;;;;;;;26.85;60.38;96444.72;5105483;27;20067;-57
2021/09/08 10:26:46;;;;;;;15.00;10.63;;;;;;;26.22;61.49;96441.28;5110736;27;20083;-56
2021/09/08 10:29:16;;;;;;;16.42;11.85;;;;;;;26.35;62.11;96442.81;5108306;27;20069;-56
2021/09/08 10:31:49;;;;;;;16.05;13.15;;;;;;;26.30;62.87;96437.34;5108266;27;20062;-56
2021/09/08 10:34:17;;;;;;;14.57;11.45;;;;;;;26.50;60.66;96437.69;5115392;27;20548;-56
2021/09/08 10:36:46;;;;;;;15.38;11.85;;;;;;;27.23;59.10;96434.19;5098274;28;20146;-57
2021/09/08 10:39:15;;;;;;;15.07;11.27;;;;;;;27.18;57.09;96424.06;5079938;28;20086;-57
2021/09/08 10:41:45;;;;;;;19.90;13.88;;;;;;;27.13;55.20;96430.25;5082897;28;20072;-54
2021/09/08 10:44:17;;;;;;;17.13;12.90;;;;;;;27.19;57.45;96433.84;5086140;28;22470;-54
2021/09/08 10:46:56;;;;;;;19.45;13.48;;;;;;;27.21;56.38;96424.38;5091067;28;20066;-54
2021/09/08 10:49:54;;;;;;;15.15;10.55;;;;;;;27.21;53.39;96424.38;5085864;28;20080;-56
2021/09/08 10:52:44;;;;;;;13.82;10.02;;;;;;;27.28;54.47;96417.97;5019142;28;20216;-55
2021/09/08 10:55:23;;;;;;;12.15;9.95;;;;;;;26.81;59.69;96411.13;5080653;28;20075;-56
2021/09/08 10:57:56;;;;;;;14.38;10.50;;;;;;;27.21;54.51;96407.34;5094585;28;20410;-56
2021/09/08 11:00:29;;;;;;;14.90;11.07;;;;;;;26.81;60.17;96413.00;5090126;28;20071;-55
2021/09/08 11:02:57;;;;;;;14.90;10.63;;;;;;;27.33;54.85;96408.03;5102779;28;20482;-57
2021/09/08 11:05:49;;;;;;;13.40;10.55;;;;;;;27.31;54.59;96404.75;5080273;28;20047;-55
2021/09/08 11:08:22;;;;;;;14.45;10.90;;;;;;;27.09;56.36;96402.03;5085006;28;20071;-56
2021/09/08 11:11:10;;;;;;;13.50;11.93;;;;;;;27.17;56.43;96396.19;5089879;28;20072;-56
2021/09/08 11:13:39;;;;;;;14.55;11.25;;;;;;;27.51;53.80;96401.47;5096733;28;20194;-57
2021/09/08 11:16:23;;;;;;;14.15;11.18;;;;;;;27.37;55.25;96397.53;5081701;28;20075;-54
2021/09/08 11:18:52;;;;;;;13.73;10.70;;;;;;;27.50;55.03;96397.13;5083737;28;20064;-55
2021/09/08 11:21:23;;;;;;;14.67;11.60;;;;;;;27.49;54.12;96387.34;5089647;28;20451;-55
2021/09/08 11:23:57;;;;;;;14.40;10.02;;;;;;;27.78;54.24;96393.41;5081030;28;20077;-58